Huvudsida
METAR-TAF:

METAR-TAF

Flygplatser :

Astrachan, Ryssland

latitud: 46-17N, longitud: 048-00-23E, höjd: 0 m

Aktuellt väderrapport

Denna rapport gjordes för 31 minuter sedan, klockan 10:00 UTC
Vind 6 kt från nord, varierande mellan väst och nordost
Temperatur 2°C
Fuktighet 64%
Tryck 1030 hPa
Sikt 10 km eller mer
Brutna moln på en höjd av 2500 ft

METAR: URWA 191000Z 35003MPS 280V040 9999 BKN025 02/M04 Q1030 R09/010070 NOSIG RMK QFE774/1033

Tid: 14:31 (10:31 UTC)

Väderprognos

Denna rapport gjordes för 2 timmar och 31 minuter sedan, klockan 08:00 UTC
Prognos gäller från 19 kl. 09 UTC till 19 kl. 18 UTC
Vind 6 kt från ost/nordost i byarna ända upp till 16 kt
Sikt 10 km eller mer
Brutna moln på en höjd av 1500 ft
Temporärt
från 19 kl. 14 UTC till 19 kl. 18 UTC
Sikt: 3100 m
Brutna moln på en höjd av 1100 ft
fuktdis

TAF: URWA 190800Z 1909/1918 06003G08MPS 9999 BKN015 TEMPO 1914/1918 3100 BR BKN011

Aktuella väderrapporter och prognoser från 4000 flygplatser (METAR- och TAF-rapporter).

De tillgängliga stationerna syns som gula och röda prickar på kartan.

För musen över prickarna för att se namnen på stationerna.

Klicka sedan för att få väderrapporter och prognoser.

För att ändra kartan: Klicka på de gröna knapparna med ett svart kors på för att zooma in; den gröna knappen med ett streck på för att zooma ut; eller på de gröna pilarna för angränsande kartor.


METAR-TAF: